Time;durP1;ratioP1;P1;durP2;ratioP2;P2;SDS_P1;SDS_P2;PMS_P1;PMS_P2;Temp;Humidity;BMP_temperature;BMP_pressure;BME280_temperature;BME280_humidity;BME280_pressure;Samples;Min_cycle;Max_cycle;Signal;HPM_P1;HPM_P2
2023/06/20 00:02:00;;;;;;;4.43;2.60;;;;;;;25.00;49.70;99854.34;10435870;28;20061;-66
2023/06/20 00:07:01;;;;;;;5.45;2.00;;;;;;;24.93;50.03;99849.13;10441167;28;20610;-65
2023/06/20 00:12:03;;;;;;;6.00;1.80;;;;;;;24.94;49.82;99853.53;10439124;28;20041;-66
2023/06/20 00:17:05;;;;;;;3.50;2.30;;;;;;;24.97;50.77;99862.31;10443523;28;20041;-69
2023/06/20 00:22:07;;;;;;;3.55;2.42;;;;;;;24.98;50.82;99856.53;10448091;28;20037;-67
2023/06/20 00:27:08;;;;;;;3.58;2.28;;;;;;;24.97;51.21;99857.63;10449759;28;20128;-68
2023/06/20 00:32:10;;;;;;;6.22;2.50;;;;;;;24.97;51.19;99859.56;10445745;28;20053;-67
2023/06/20 00:37:11;;;;;;;3.97;2.45;;;;;;;24.72;51.58;99881.41;10446314;28;20053;-65
2023/06/20 00:42:20;;;;;;;10.63;3.15;;;;;;;24.19;55.13;99933.19;10445999;28;20048;-68
2023/06/20 00:47:23;;;;;;;4.15;3.03;;;;;;;23.83;56.37;99927.72;10446279;28;20403;-68
2023/06/20 00:52:25;;;;;;;7.88;3.13;;;;;;;22.89;59.95;99924.19;10446361;28;20048;-67
2023/06/20 00:57:26;;;;;;;8.75;4.65;;;;;;;22.93;61.56;99914.34;10447884;28;20067;-68
2023/06/20 01:02:28;;;;;;;5.22;4.05;;;;;;;22.97;62.08;99909.97;10445957;28;20052;-68
2023/06/20 01:07:58;;;;;;;9.95;4.32;;;;;;;22.91;62.78;99891.84;10445478;28;20060;-67
2023/06/20 01:13:43;;;;;;;4.97;4.10;;;;;;;22.69;63.87;99886.53;10444449;28;20092;-68
2023/06/20 01:18:54;;;;;;;5.05;4.18;;;;;;;22.45;64.93;99880.69;10446536;28;20044;-69
2023/06/20 01:24:03;;;;;;;5.25;4.00;;;;;;;22.32;65.43;99877.34;10443401;28;20647;-66
2023/06/20 01:29:44;;;;;;;4.53;4.13;;;;;;;22.32;65.31;99866.41;10443557;28;20080;-67
2023/06/20 01:34:51;;;;;;;6.35;4.65;;;;;;;22.12;66.46;99860.78;10445988;28;20047;-66
2023/06/20 01:39:58;;;;;;;6.70;4.80;;;;;;;22.13;66.30;99846.00;10446064;28;20056;-67
2023/06/20 01:45:02;;;;;;;7.70;4.95;;;;;;;22.15;66.60;99854.75;10440084;28;20049;-67
2023/06/20 01:50:06;;;;;;;8.30;4.93;;;;;;;22.24;66.65;99866.91;10441899;28;20052;-66
2023/06/20 01:55:10;;;;;;;7.18;4.75;;;;;;;22.23;66.98;99869.88;10441907;28;20377;-66
2023/06/20 02:00:13;;;;;;;10.50;4.78;;;;;;;22.39;66.48;99860.66;10442559;28;20047;-66
2023/06/20 02:05:16;;;;;;;8.57;4.85;;;;;;;22.43;66.55;99875.47;10443989;28;20043;-67
2023/06/20 02:10:19;;;;;;;6.35;4.78;;;;;;;22.46;66.94;99885.09;10441472;28;20060;-65
2023/06/20 02:15:23;;;;;;;9.07;4.47;;;;;;;22.54;67.51;99884.59;10442253;28;20052;-66
2023/06/20 02:20:25;;;;;;;5.85;5.25;;;;;;;22.63;67.11;99902.16;10442947;28;20052;-65
2023/06/20 02:25:33;;;;;;;8.63;5.45;;;;;;;22.51;67.88;99917.97;10442511;28;20037;-66
2023/06/20 02:30:37;;;;;;;6.72;4.88;;;;;;;22.52;67.52;99906.75;10457501;28;20077;-66
2023/06/20 02:35:41;;;;;;;10.35;5.68;;;;;;;22.62;67.39;99902.44;10442926;28;20454;-66
2023/06/20 02:40:43;;;;;;;9.02;5.95;;;;;;;22.69;67.04;99919.44;10440182;28;20052;-66
2023/06/20 02:45:50;;;;;;;7.60;5.78;;;;;;;22.76;66.75;99900.84;10440751;28;20037;-67
2023/06/20 02:51:05;;;;;;;9.10;6.55;;;;;;;22.85;66.78;99912.09;10441375;28;20140;-67
2023/06/20 02:56:12;;;;;;;9.00;6.80;;;;;;;22.93;66.52;99930.78;10438194;28;20053;-68
2023/06/20 03:01:20;;;;;;;8.05;7.20;;;;;;;22.88;66.69;99938.97;10440256;28;20041;-66
2023/06/20 03:06:27;;;;;;;8.75;6.65;;;;;;;22.36;68.80;99965.28;10439272;28;20140;-67
2023/06/20 03:11:29;;;;;;;11.93;8.40;;;;;;;22.16;69.65;99974.16;10439544;28;20166;-68
2023/06/20 03:16:31;;;;;;;18.55;10.30;;;;;;;22.03;70.80;99964.47;10469048;28;20101;-64
2023/06/20 03:21:32;;;;;;;22.67;12.85;;;;;;;21.88;72.48;99954.22;10442675;28;20136;-66
2023/06/20 03:26:36;;;;;;;18.88;12.60;;;;;;;21.97;72.67;99922.53;10439772;28;20060;-66
2023/06/20 03:31:37;;;;;;;20.23;13.00;;;;;;;21.93;73.49;99909.63;10439763;28;20049;-68
2023/06/20 03:36:39;;;;;;;15.60;11.68;;;;;;;21.48;74.61;99910.91;10437246;28;20045;-68
2023/06/20 03:41:40;;;;;;;17.98;13.57;;;;;;;21.54;75.00;99898.91;10439572;28;20055;-68
2023/06/20 03:46:42;;;;;;;21.73;14.02;;;;;;;21.71;74.72;99893.31;10438879;28;20518;-67
2023/06/20 03:51:43;;;;;;;23.35;14.80;;;;;;;21.73;74.86;99882.94;10446366;28;20793;-66
2023/06/20 03:56:45;;;;;;;21.85;13.88;;;;;;;21.50;75.66;99898.59;10447840;28;20057;-68
2023/06/20 04:01:46;;;;;;;21.10;14.80;;;;;;;21.45;75.80;99933.31;10445735;28;20057;-66
2023/06/20 04:06:49;;;;;;;27.35;17.08;;;;;;;21.59;75.88;99957.22;10447543;28;20144;-67
2023/06/20 04:11:51;;;;;;;21.23;14.52;;;;;;;21.50;75.92;99944.28;10454941;28;20135;-62
2023/06/20 04:16:53;;;;;;;27.20;16.58;;;;;;;21.63;76.07;99927.44;10458599;28;20053;-63
2023/06/20 04:21:54;;;;;;;31.13;17.52;;;;;;;21.78;76.00;99913.91;10465789;28;20049;-61
2023/06/20 04:26:55;;;;;;;25.48;15.95;;;;;;;21.76;76.14;99923.44;10464425;28;20079;-64
2023/06/20 04:31:57;;;;;;;29.00;17.17;;;;;;;21.69;76.54;99934.63;10467304;28;20072;-62
2023/06/20 04:37:01;;;;;;;30.20;16.45;;;;;;;21.66;77.07;99920.63;10466013;28;20686;-63
2023/06/20 04:42:03;;;;;;;26.55;18.20;;;;;;;21.80;76.83;99913.66;10465562;28;20128;-63
2023/06/20 04:47:04;;;;;;;25.45;16.85;;;;;;;21.97;76.50;99911.56;10472687;28;20052;-64
2023/06/20 04:52:06;;;;;;;27.77;17.65;;;;;;;22.15;76.58;99906.78;10473853;28;20048;-63
2023/06/20 04:57:08;;;;;;;22.67;16.15;;;;;;;22.26;76.29;99913.19;10473824;28;21171;-65
2023/06/20 05:02:09;;;;;;;27.25;15.95;;;;;;;22.16;76.54;99927.59;10451191;28;20045;-67
2023/06/20 05:07:11;;;;;;;25.33;16.33;;;;;;;22.30;76.31;99928.81;10444230;28;20045;-66
2023/06/20 05:12:12;;;;;;;26.88;16.98;;;;;;;22.48;76.45;99929.47;10443109;28;20139;-67
2023/06/20 05:17:14;;;;;;;25.00;16.75;;;;;;;22.55;76.52;99933.63;10443911;28;20060;-68
2023/06/20 05:22:15;;;;;;;22.48;14.65;;;;;;;22.59;76.97;99928.44;10444376;28;20048;-68
2023/06/20 05:27:19;;;;;;;17.52;13.95;;;;;;;22.55;76.36;99951.97;10441447;28;20055;-67
2023/06/20 05:32:21;;;;;;;16.70;12.85;;;;;;;22.55;76.22;99957.44;10440874;28;20056;-68
2023/06/20 05:37:23;;;;;;;16.05;12.27;;;;;;;22.65;75.93;99948.47;10441620;28;20045;-67
2023/06/20 05:42:24;;;;;;;16.80;12.40;;;;;;;22.84;75.80;99943.34;10442800;28;20037;-67
2023/06/20 05:47:26;;;;;;;19.90;13.75;;;;;;;23.02;75.36;99950.28;10441034;28;20389;-67
2023/06/20 05:52:27;;;;;;;16.20;13.35;;;;;;;23.12;75.31;99955.81;10444455;28;20462;-67
2023/06/20 05:57:29;;;;;;;14.15;11.88;;;;;;;23.11;75.02;99951.44;10439173;28;20120;-68
2023/06/20 06:02:31;;;;;;;13.75;11.27;;;;;;;23.11;74.45;99952.25;10440113;28;20048;-70
2023/06/20 06:07:33;;;;;;;14.43;12.18;;;;;;;23.27;74.47;99950.38;10436723;28;20086;-67
2023/06/20 06:12:35;;;;;;;16.70;12.65;;;;;;;23.26;74.52;99956.13;10443438;28;20041;-66
2023/06/20 06:17:37;;;;;;;16.67;13.13;;;;;;;23.56;74.23;99961.72;10443791;28;20044;-66
2023/06/20 06:22:38;;;;;;;16.23;12.35;;;;;;;23.74;74.09;99954.03;10438321;28;20061;-65
2023/06/20 06:27:41;;;;;;;14.13;11.60;;;;;;;23.90;73.95;99949.41;10440731;28;20041;-65
2023/06/20 06:32:49;;;;;;;15.98;12.52;;;;;;;24.05;73.37;99949.41;10440432;28;20044;-66
2023/06/20 06:37:52;;;;;;;14.02;11.15;;;;;;;24.19;72.73;99951.59;10438531;28;20079;-66
2023/06/20 06:42:53;;;;;;;13.60;10.68;;;;;;;24.39;72.23;99954.31;10443503;28;20640;-64
2023/06/20 06:47:55;;;;;;;15.98;11.75;;;;;;;24.65;71.54;99946.03;10441121;28;20045;-66
2023/06/20 06:52:57;;;;;;;13.80;11.70;;;;;;;24.84;71.43;99954.47;10439323;28;20057;-64
2023/06/20 06:57:58;;;;;;;13.95;11.77;;;;;;;25.11;71.15;99965.09;10433964;28;20053;-65
2023/06/20 07:02:59;;;;;;;15.52;12.60;;;;;;;25.12;69.56;99962.06;10433499;28;20377;-64
2023/06/20 07:08:01;;;;;;;16.08;11.55;;;;;;;25.17;69.85;99966.72;10441045;28;20402;-64
2023/06/20 07:13:05;;;;;;;14.00;11.82;;;;;;;25.38;69.75;99953.72;10436912;28;20045;-64
2023/06/20 07:18:08;;;;;;;15.57;10.35;;;;;;;25.70;69.03;99963.41;10436484;28;20061;-64
2023/06/20 07:23:10;;;;;;;10.20;9.13;;;;;;;25.90;67.53;99965.19;10440653;28;20052;-64
2023/06/20 07:28:11;;;;;;;12.60;10.60;;;;;;;25.88;66.84;99959.97;10440729;28;20045;-70
2023/06/20 07:33:13;;;;;;;13.43;9.00;;;;;;;25.99;67.04;99955.25;10436623;28;20033;-69
2023/06/20 07:38:15;;;;;;;10.18;9.10;;;;;;;26.12;66.16;99953.72;10434994;28;20314;-74
2023/06/20 07:43:24;;;;;;;11.52;9.48;;;;;;;26.05;65.83;99953.25;10448739;28;20037;-76
2023/06/20 07:48:29;;;;;;;11.63;9.88;;;;;;;26.12;65.22;99954.53;10450896;28;20495;-73
2023/06/20 07:53:31;;;;;;;11.50;10.30;;;;;;;26.31;64.77;99951.09;10444634;28;20064;-75
2023/06/20 07:58:32;;;;;;;12.25;9.30;;;;;;;26.65;64.30;99945.50;10437792;28;20033;-74
2023/06/20 08:03:34;;;;;;;13.35;10.88;;;;;;;26.84;63.70;99940.03;10440068;28;20037;-73
2023/06/20 08:08:35;;;;;;;13.85;11.38;;;;;;;26.88;63.30;99935.56;10436956;28;20160;-74
2023/06/20 08:13:37;;;;;;;13.38;11.32;;;;;;;27.08;62.15;99931.72;10433823;28;20040;-76
2023/06/20 08:18:39;;;;;;;13.93;12.05;;;;;;;27.12;61.69;99931.16;10435303;28;20056;-72
2023/06/20 08:23:40;;;;;;;14.77;13.27;;;;;;;27.44;61.49;99933.19;10433762;28;20069;-67
2023/06/20 08:28:42;;;;;;;12.95;10.90;;;;;;;27.38;61.28;99934.41;10434340;28;20136;-66
2023/06/20 08:33:43;;;;;;;14.40;11.32;;;;;;;27.48;60.55;99939.75;10438025;28;20090;-67
2023/06/20 08:38:45;;;;;;;11.80;10.27;;;;;;;27.45;60.63;99930.16;10439910;28;20048;-65
2023/06/20 08:43:46;;;;;;;13.23;11.23;;;;;;;27.75;59.84;99932.72;10447672;28;20091;-64
2023/06/20 08:48:47;;;;;;;13.05;11.20;;;;;;;27.85;60.36;99933.38;10446041;28;20048;-66
2023/06/20 08:59:04;;;;;;;13.38;8.98;;;;;;;28.21;58.64;99918.94;10375949;28;20072;-64
2023/06/20 09:04:05;;;;;;;11.57;10.35;;;;;;;28.26;57.95;99923.59;10380602;28;20073;-64
2023/06/20 09:09:18;;;;;;;11.75;10.23;;;;;;;28.23;58.04;99924.19;10380216;28;20082;-64
2023/06/20 09:14:29;;;;;;;11.98;10.70;;;;;;;28.26;57.40;99927.16;10408382;28;20053;-64
2023/06/20 09:19:45;;;;;;;11.65;10.45;;;;;;;28.24;56.77;99923.88;10406216;28;20034;-65
2023/06/20 09:24:47;;;;;;;11.20;8.88;;;;;;;28.37;56.28;99930.53;10414625;28;20030;-64
2023/06/20 09:29:56;;;;;;;14.35;9.40;;;;;;;28.46;55.52;99931.47;10464617;23;20502;-90
2023/06/20 09:35:02;;;;;;;7.93;7.13;;;;;;;28.56;54.50;99918.63;10510694;28;20044;-89
2023/06/20 09:40:09;;;;;;;9.10;7.40;;;;;;;28.70;53.62;99919.44;10524994;28;20036;-91
2023/06/20 09:45:16;;;;;;;9.50;6.15;;;;;;;29.14;53.76;99922.69;10503371;28;20052;-89
2023/06/20 09:50:19;;;;;;;8.23;6.97;;;;;;;29.41;53.20;99917.06;10547664;28;20553;-89
2023/06/20 09:55:24;;;;;;;6.55;5.45;;;;;;;29.87;51.34;99909.63;10527565;28;20040;-89
2023/06/20 10:00:29;;;;;;;10.10;6.68;;;;;;;30.01;50.52;99902.03;10540534;28;20556;-91
2023/06/20 10:05:33;;;;;;;7.43;6.20;;;;;;;29.96;49.65;99904.16;10523404;28;20044;-90
2023/06/20 10:10:35;;;;;;;6.47;5.93;;;;;;;30.01;48.86;99901.22;10509122;28;20058;-89
2023/06/20 10:15:42;;;;;;;8.00;7.30;;;;;;;30.25;48.20;99901.69;10507605;28;20056;-90
2023/06/20 10:20:44;;;;;;;6.43;5.70;;;;;;;30.51;48.78;99908.50;10462958;28;20048;-89
2023/06/20 10:25:53;;;;;;;6.90;6.25;;;;;;;31.00;47.16;99906.53;10456480;28;20079;-89
2023/06/20 10:31:00;;;;;;;6.93;6.22;;;;;;;31.12;46.54;99912.25;10444467;28;20052;-89
2023/06/20 10:36:06;;;;;;;7.78;6.53;;;;;;;30.96;46.43;99905.56;10476108;28;20510;-90
2023/06/20 10:41:13;;;;;;;7.20;6.50;;;;;;;31.03;46.29;99909.50;10477724;28;20050;-91
2023/06/20 10:51:29;;;;;;;7.53;6.82;;;;;;;31.10;45.04;99905.41;10615295;22;20017;-64
2023/06/20 10:56:30;;;;;;;5.75;5.25;;;;;;;31.30;45.15;99899.22;10443347;28;20069;-64
2023/06/20 11:01:33;;;;;;;6.00;5.32;;;;;;;31.55;44.17;99894.81;10428533;28;20047;-67
2023/06/20 11:06:36;;;;;;;5.85;5.35;;;;;;;31.70;43.44;99890.72;10432467;28;20049;-65
2023/06/20 11:11:38;;;;;;;6.88;6.22;;;;;;;31.63;42.61;99882.88;10423472;28;20048;-66
2023/06/20 11:16:41;;;;;;;8.23;5.50;;;;;;;31.68;42.16;99886.66;10430685;28;20380;-66
2023/06/20 11:21:43;;;;;;;7.00;6.30;;;;;;;31.71;42.41;99884.00;10427772;28;20083;-68
2023/06/20 11:26:44;;;;;;;6.97;6.32;;;;;;;31.81;41.85;99883.69;10425210;28;20048;-69
2023/06/20 11:31:45;;;;;;;6.10;5.50;;;;;;;31.95;40.92;99877.09;10420369;28;20059;-66
2023/06/20 11:36:49;;;;;;;7.05;6.30;;;;;;;32.04;40.92;99877.94;10424385;28;20080;-66
2023/06/20 11:41:50;;;;;;;7.07;6.38;;;;;;;32.18;40.63;99884.09;10404755;28;20048;-65
2023/06/20 11:46:56;;;;;;;6.35;5.75;;;;;;;32.25;40.25;99875.25;10418593;28;20060;-67
2023/06/20 11:51:59;;;;;;;7.95;6.38;;;;;;;32.26;40.14;99865.72;10428579;28;20099;-69
2023/06/20 11:57:00;;;;;;;7.63;6.35;;;;;;;32.22;39.84;99865.56;10421222;28;20045;-67
2023/06/20 12:02:02;;;;;;;6.82;6.13;;;;;;;32.45;39.70;99851.41;10423135;28;20045;-66
2023/06/20 12:07:04;;;;;;;9.20;5.75;;;;;;;32.85;38.52;99864.13;10422601;28;20045;-65
2023/06/20 12:12:06;;;;;;;6.13;5.53;;;;;;;32.49;38.37;99852.38;10426822;28;20042;-66
2023/06/20 12:17:07;;;;;;;6.18;5.68;;;;;;;32.30;37.96;99850.00;10430041;28;20416;-66
2023/06/20 12:22:09;;;;;;;5.38;4.93;;;;;;;32.72;37.38;99844.56;10437014;28;20127;-68
2023/06/20 12:27:11;;;;;;;5.20;4.80;;;;;;;33.21;36.84;99843.25;10425872;28;20049;-67
2023/06/20 12:32:12;;;;;;;6.38;5.50;;;;;;;33.48;37.06;99833.50;10431955;28;20095;-66
2023/06/20 12:37:14;;;;;;;5.30;4.78;;;;;;;33.53;36.08;99839.69;10426309;28;20065;-65
2023/06/20 12:42:18;;;;;;;4.70;4.30;;;;;;;33.73;36.42;99837.19;10428877;28;20504;-66
2023/06/20 12:47:20;;;;;;;4.78;4.38;;;;;;;34.13;34.58;99829.00;10427290;28;20041;-66
2023/06/20 12:52:21;;;;;;;9.07;4.80;;;;;;;34.20;34.08;99816.47;10430357;28;20048;-66
2023/06/20 12:57:25;;;;;;;5.35;4.43;;;;;;;34.31;33.38;99800.91;10431670;28;20579;-67
2023/06/20 13:02:27;;;;;;;3.63;3.37;;;;;;;34.71;32.55;99802.97;10430028;28;20044;-67
2023/06/20 13:07:28;;;;;;;4.00;3.70;;;;;;;35.04;32.10;99796.38;10425812;28;20584;-64
2023/06/20 13:12:32;;;;;;;3.90;3.30;;;;;;;35.64;32.00;99793.66;10429644;28;20150;-69
2023/06/20 13:17:36;;;;;;;3.05;2.78;;;;;;;36.14;31.53;99789.34;10439447;28;20152;-70
2023/06/20 13:22:39;;;;;;;3.28;2.97;;;;;;;36.64;30.24;99804.56;10429346;28;20041;-71
2023/06/20 13:27:41;;;;;;;3.80;2.70;;;;;;;36.63;29.68;99793.69;10419676;28;20051;-72
2023/06/20 13:32:43;;;;;;;2.80;2.60;;;;;;;36.76;29.69;99800.81;10451596;28;20131;-71
2023/06/20 13:37:45;;;;;;;3.33;3.03;;;;;;;37.43;27.84;99797.81;10433592;28;20045;-72
2023/06/20 13:42:48;;;;;;;3.45;2.42;;;;;;;38.31;26.76;99789.72;10422446;28;20055;-72
2023/06/20 13:47:49;;;;;;;3.80;2.45;;;;;;;39.50;24.42;99783.66;10427937;28;20136;-72
2023/06/20 13:52:52;;;;;;;2.80;2.22;;;;;;;39.00;24.57;99775.47;10341179;28;20053;-71
2023/06/20 13:57:54;;;;;;;2.38;2.17;;;;;;;39.07;24.16;99775.56;10338390;28;20076;-71
2023/06/20 14:02:56;;;;;;;4.05;3.40;;;;;;;39.68;23.88;99776.22;10340021;28;20425;-75
2023/06/20 14:07:58;;;;;;;3.40;2.53;;;;;;;39.10;24.28;99774.78;10340992;28;20572;-70
2023/06/20 14:12:59;;;;;;;3.08;2.58;;;;;;;38.69;24.80;99766.22;10342246;28;20050;-72
2023/06/20 14:18:01;;;;;;;2.53;2.33;;;;;;;38.52;25.19;99761.97;10341420;28;20094;-71
2023/06/20 14:23:02;;;;;;;3.70;2.45;;;;;;;38.03;25.50;99757.97;10341544;28;20082;-75
2023/06/20 14:28:04;;;;;;;4.45;3.15;;;;;;;38.06;25.22;99756.47;10344879;28;20058;-73
2023/06/20 14:33:06;;;;;;;3.60;3.28;;;;;;;38.41;24.81;99746.94;10338533;28;20038;-74
2023/06/20 14:38:07;;;;;;;3.60;2.97;;;;;;;39.03;24.46;99741.78;10337076;28;20096;-73
2023/06/20 14:43:09;;;;;;;6.47;2.75;;;;;;;39.75;24.10;99736.06;10337454;28;20069;-75
2023/06/20 14:48:10;;;;;;;3.35;2.80;;;;;;;40.35;23.43;99732.94;10347986;28;20046;-72
2023/06/20 14:53:12;;;;;;;3.22;2.92;;;;;;;40.02;23.16;99720.63;10419734;28;20056;-71
2023/06/20 14:58:13;;;;;;;2.70;2.38;;;;;;;40.29;22.87;99714.75;10407399;28;20071;-70
2023/06/20 15:03:15;;;;;;;4.05;3.08;;;;;;;40.03;23.11;99708.16;10419936;28;20050;-72
2023/06/20 15:08:17;;;;;;;3.67;2.50;;;;;;;40.67;22.98;99709.72;10415703;28;20052;-70
2023/06/20 15:13:18;;;;;;;2.72;2.53;;;;;;;41.00;22.97;99713.50;10420922;28;20037;-69
2023/06/20 15:18:20;;;;;;;3.22;2.45;;;;;;;41.24;22.80;99706.31;10421028;28;20045;-73
2023/06/20 15:23:21;;;;;;;6.07;2.67;;;;;;;41.48;21.90;99701.91;10420750;28;20051;-70
2023/06/20 15:28:23;;;;;;;3.67;2.55;;;;;;;41.96;21.12;99697.84;10420568;28;20507;-72
2023/06/20 15:33:25;;;;;;;6.22;2.97;;;;;;;42.05;20.90;99686.97;10420327;28;20037;-75
2023/06/20 15:38:26;;;;;;;5.07;3.10;;;;;;;41.84;21.70;99687.78;10419969;28;20045;-74
2023/06/20 15:43:28;;;;;;;2.65;2.40;;;;;;;40.78;21.86;99696.53;10420663;28;20048;-73
2023/06/20 15:48:29;;;;;;;3.42;2.65;;;;;;;40.19;22.05;99678.91;10429737;28;20076;-70
2023/06/20 15:53:31;;;;;;;3.90;2.42;;;;;;;39.27;22.57;99678.53;10423646;28;20133;-74
2023/06/20 15:58:33;;;;;;;4.13;2.65;;;;;;;38.38;23.51;99683.91;10438233;28;20526;-73
2023/06/20 16:03:34;;;;;;;3.30;3.00;;;;;;;38.71;23.19;99667.47;10435242;28;20124;-72
2023/06/20 16:08:36;;;;;;;7.47;2.85;;;;;;;38.85;23.27;99662.84;10422866;28;20496;-69
2023/06/20 16:13:38;;;;;;;2.88;2.67;;;;;;;39.03;22.56;99656.63;10422996;28;20029;-71
2023/06/20 16:18:40;;;;;;;2.80;2.60;;;;;;;38.07;24.04;99654.22;10432720;28;20055;-69
2023/06/20 16:23:42;;;;;;;7.18;2.97;;;;;;;37.84;24.04;99651.47;10417310;28;20404;-73
2023/06/20 16:28:43;;;;;;;4.72;2.88;;;;;;;37.80;24.53;99637.38;10423997;28;20045;-71
2023/06/20 16:33:45;;;;;;;5.10;4.25;;;;;;;37.70;24.15;99636.03;10425557;28;20044;-75
2023/06/20 16:38:53;;;;;;;6.85;3.92;;;;;;;37.21;25.25;99648.00;10438890;28;20057;-73
2023/06/20 16:43:54;;;;;;;3.85;3.38;;;;;;;36.98;25.35;99639.56;10419317;28;20072;-74
2023/06/20 16:48:56;;;;;;;3.60;2.85;;;;;;;36.87;25.55;99636.56;10443855;28;20057;-75
2023/06/20 16:53:57;;;;;;;2.88;2.67;;;;;;;37.45;25.69;99637.59;10443933;28;20049;-75
2023/06/20 16:58:59;;;;;;;3.88;2.60;;;;;;;37.85;25.33;99628.63;10449480;28;20076;-74
2023/06/20 17:04:04;;;;;;;3.35;2.03;;;;;;;37.89;25.32;99611.84;10443452;28;20041;-73
2023/06/20 17:09:05;;;;;;;2.55;2.08;;;;;;;38.24;25.02;99616.34;10416527;28;20048;-72
2023/06/20 17:14:07;;;;;;;2.72;2.08;;;;;;;38.57;24.40;99617.56;10413400;28;20064;-74
2023/06/20 17:19:09;;;;;;;1.80;1.70;;;;;;;38.39;24.21;99608.91;10448467;28;20108;-73
2023/06/20 17:24:12;;;;;;;3.70;1.92;;;;;;;37.96;24.84;99613.94;10423106;28;20040;-73
2023/06/20 17:29:14;;;;;;;6.17;1.70;;;;;;;37.57;25.54;99600.91;10438774;28;20064;-72
2023/06/20 17:34:15;;;;;;;4.70;1.92;;;;;;;37.08;25.28;99598.88;10422215;28;20041;-75
2023/06/20 17:39:19;;;;;;;3.95;2.50;;;;;;;36.48;25.94;99604.97;10443754;28;20563;-73
2023/06/20 17:44:22;;;;;;;2.92;2.50;;;;;;;35.87;26.56;99607.25;10445402;28;20127;-72
2023/06/20 17:49:23;;;;;;;3.50;2.40;;;;;;;35.42;26.77;99618.94;10421673;28;20051;-69
2023/06/20 17:54:25;;;;;;;4.43;2.20;;;;;;;34.94;27.69;99625.28;10451035;28;20037;-71
2023/06/20 17:59:26;;;;;;;5.28;2.88;;;;;;;34.49;27.89;99632.00;10414676;28;20116;-71
2023/06/20 18:04:28;;;;;;;7.53;2.75;;;;;;;34.19;28.63;99653.84;10443781;28;20160;-68
2023/06/20 18:09:29;;;;;;;3.97;2.90;;;;;;;33.93;29.55;99663.38;10438250;28;20045;-69
2023/06/20 18:14:31;;;;;;;17.13;3.85;;;;;;;32.29;34.97;99678.69;10440602;28;20045;-69
2023/06/20 18:19:32;;;;;;;16.45;5.00;;;;;;;29.25;43.72;99713.69;10426272;28;20056;-72
2023/06/20 18:24:57;;;;;;;11.52;5.05;;;;;;;28.22;46.77;99701.41;10399683;28;20049;-70
2023/06/20 18:29:59;;;;;;;14.75;6.30;;;;;;;27.81;48.37;99722.38;10422791;28;20402;-71
2023/06/20 18:35:00;;;;;;;8.10;4.28;;;;;;;27.49;48.85;99720.53;10424330;28;20070;-67
2023/06/20 18:40:02;;;;;;;9.50;4.10;;;;;;;27.25;49.33;99728.94;10421474;28;20064;-69
2023/06/20 18:45:05;;;;;;;6.63;3.47;;;;;;;26.99;49.68;99703.69;10416375;28;20041;-71
2023/06/20 18:50:08;;;;;;;6.28;2.97;;;;;;;26.73;50.33;99695.84;10425102;28;20051;-70
2023/06/20 18:55:09;;;;;;;4.78;3.60;;;;;;;26.59;50.97;99706.81;10426049;28;20112;-70
2023/06/20 19:00:12;;;;;;;5.43;3.53;;;;;;;26.59;50.63;99711.50;10426577;28;20067;-69
2023/06/20 19:05:13;;;;;;;8.75;4.00;;;;;;;26.81;49.92;99717.22;10422039;28;20049;-69
2023/06/20 19:10:15;;;;;;;5.55;3.10;;;;;;;27.08;49.53;99705.47;10400319;28;20076;-67
2023/06/20 19:15:16;;;;;;;6.38;3.00;;;;;;;27.00;49.02;99699.84;10460455;28;20060;-70
2023/06/20 19:20:19;;;;;;;5.57;3.08;;;;;;;27.04;49.17;99698.13;10435266;28;20055;-69
2023/06/20 19:25:21;;;;;;;4.47;4.03;;;;;;;27.16;49.13;99700.41;10437277;28;20037;-70
2023/06/20 19:30:22;;;;;;;6.07;3.40;;;;;;;27.18;49.48;99721.03;10437646;28;20136;-71
2023/06/20 19:35:24;;;;;;;8.98;3.58;;;;;;;27.14;49.73;99741.28;10412077;28;20049;-69
2023/06/20 19:40:26;;;;;;;5.53;4.47;;;;;;;27.19;50.39;99746.69;10397298;28;20041;-70
2023/06/20 19:45:28;;;;;;;5.47;4.20;;;;;;;27.25;50.47;99738.06;10419734;28;20037;-71
2023/06/20 19:50:36;;;;;;;7.50;5.60;;;;;;;27.45;49.85;99750.69;10419253;28;20139;-68
2023/06/20 19:55:38;;;;;;;8.00;5.45;;;;;;;27.59;49.88;99760.94;10419889;28;20052;-67
2023/06/20 20:00:39;;;;;;;11.02;5.00;;;;;;;27.68;50.28;99761.84;10415816;28;20049;-68
2023/06/20 20:05:41;;;;;;;7.75;4.75;;;;;;;27.64;50.77;99761.66;10426580;28;20665;-68
2023/06/20 20:10:43;;;;;;;8.80;4.60;;;;;;;27.57;50.90;99760.41;10396997;28;20048;-65
2023/06/20 20:15:44;;;;;;;6.63;4.50;;;;;;;27.49;51.41;99759.19;10414757;28;20087;-60
2023/06/20 20:20:46;;;;;;;8.07;5.80;;;;;;;27.42;51.32;99759.56;10428091;28;20069;-61
2023/06/20 20:25:47;;;;;;;7.18;4.68;;;;;;;27.05;52.30;99776.97;10425124;28;20044;-63
2023/06/20 20:30:49;;;;;;;7.32;4.25;;;;;;;26.90;52.33;99792.66;10426733;28;20041;-62
2023/06/20 20:35:50;;;;;;;7.45;4.60;;;;;;;26.95;52.42;99813.81;10429288;28;20053;-63
2023/06/20 20:40:52;;;;;;;9.70;5.18;;;;;;;26.93;52.29;99820.78;10435467;28;20048;-62
2023/06/20 20:45:54;;;;;;;8.68;4.40;;;;;;;26.84;52.82;99831.66;10408071;28;20560;-64
2023/06/20 20:50:55;;;;;;;6.32;5.05;;;;;;;26.71;53.12;99831.25;10419926;28;20073;-62
2023/06/20 20:55:57;;;;;;;7.32;4.68;;;;;;;26.67;53.50;99840.44;10425048;28;20060;-63
2023/06/20 21:00:58;;;;;;;9.57;5.63;;;;;;;26.60;53.72;99848.22;10427057;28;20044;-63
2023/06/20 21:06:00;;;;;;;8.63;4.20;;;;;;;26.60;53.98;99851.00;10427755;28;20069;-61
2023/06/20 21:11:01;;;;;;;8.73;5.25;;;;;;;26.64;54.03;99880.44;10430584;28;20060;-64
2023/06/20 21:16:03;;;;;;;13.18;5.00;;;;;;;26.63;54.35;99883.50;10427329;28;20056;-64
2023/06/20 21:21:06;;;;;;;6.78;5.10;;;;;;;26.55;54.89;99887.69;10426793;28;20052;-63
2023/06/20 21:26:08;;;;;;;10.02;4.90;;;;;;;26.55;54.85;99882.19;10429584;28;20049;-62
2023/06/20 21:31:09;;;;;;;8.52;5.53;;;;;;;26.50;55.50;99894.09;10413813;28;20045;-61
2023/06/20 21:36:11;;;;;;;7.05;5.03;;;;;;;26.45;55.51;99912.63;10414989;28;20107;-63
2023/06/20 21:41:12;;;;;;;8.82;5.63;;;;;;;26.46;55.65;99911.50;10429590;28;20049;-64
2023/06/20 21:46:14;;;;;;;8.27;5.50;;;;;;;26.40;55.99;99910.75;10421475;28;20035;-62
2023/06/20 21:51:15;;;;;;;10.45;5.72;;;;;;;26.40;56.20;99918.19;10409470;28;20125;-62
2023/06/20 21:56:17;;;;;;;7.82;6.00;;;;;;;26.42;56.24;99929.75;10431412;28;20041;-63
2023/06/20 22:01:18;;;;;;;11.50;5.88;;;;;;;26.37;56.38;99927.06;10424909;28;20083;-63
2023/06/20 22:06:20;;;;;;;8.98;5.75;;;;;;;26.39;55.97;99933.91;10431264;28;20467;-61
2023/06/20 22:11:21;;;;;;;8.00;5.00;;;;;;;26.45;55.74;99929.16;10414326;28;20044;-63
2023/06/20 22:16:23;;;;;;;10.13;5.80;;;;;;;26.48;55.59;99940.44;10414423;28;20069;-63
2023/06/20 22:21:24;;;;;;;9.32;5.60;;;;;;;26.53;55.55;99942.31;10416759;28;20049;-61
2023/06/20 22:26:26;;;;;;;8.85;4.90;;;;;;;26.57;54.87;99951.63;10391997;28;20055;-63
2023/06/20 22:31:27;;;;;;;7.78;4.60;;;;;;;26.60;54.71;99948.34;10421056;28;20068;-63
2023/06/20 22:36:29;;;;;;;8.18;5.75;;;;;;;26.58;54.88;99949.69;10426214;28;20069;-62
2023/06/20 22:41:30;;;;;;;8.85;5.07;;;;;;;26.48;54.08;99954.22;10411846;28;20045;-62
2023/06/20 22:46:32;;;;;;;7.85;4.05;;;;;;;26.39;54.24;99953.19;10418758;28;20357;-62
2023/06/20 22:51:35;;;;;;;6.97;4.25;;;;;;;26.32;54.26;99958.22;10379518;28;20038;-62
2023/06/20 22:56:36;;;;;;;4.10;3.65;;;;;;;26.22;53.63;99969.34;10392280;28;20096;-61
2023/06/20 23:01:40;;;;;;;6.97;4.45;;;;;;;26.15;53.40;99966.94;10375991;28;20443;-62
2023/06/20 23:06:41;;;;;;;7.32;4.40;;;;;;;26.09;53.88;99974.44;10384945;28;20042;-60
2023/06/20 23:11:43;;;;;;;7.22;4.55;;;;;;;26.03;53.33;99972.00;10380206;28;20049;-63
2023/06/20 23:16:45;;;;;;;6.75;3.40;;;;;;;25.92;52.62;99983.09;10379220;28;20048;-63
2023/06/20 23:21:46;;;;;;;4.47;3.38;;;;;;;25.72;52.92;99981.28;10379126;28;20047;-64
2023/06/20 23:26:48;;;;;;;11.02;4.75;;;;;;;25.61;52.58;99976.97;10380523;28;20046;-61
2023/06/20 23:31:50;;;;;;;4.25;2.75;;;;;;;25.44;52.29;99982.03;10365571;28;20196;-64